Česky Dansk Deutsch English Español Suomi Français Magyar Italiano Nederlands norsk Polski Português svenska Türkçe

 

Het Weer

Ngaoundere (Cameroon)

14:00, 21 agosto 2016 (GMT)

NWNNE
WE
SWSSE
Home            
Ngaoundere Meiganga Betare-Oya Banyo Garoua Yoko Yola Pala Bouar Moundou Batouri Maroua-Salak Koundja Abong-Mbang Bafia Bamenda Berberati Bossangoa Younde Ii Yaounde Lomie Nkongsamba Maiduguri

Om een weerknop op uw website of weblog te plaatsen, copieer onderstaande code en plak die in uw pagina. In het eerste vakje staat HTML-code, in het tweede vakje UBB-code.


Add to Google

Details

Wind speed:2 bf, 6 kn, 3.1 m/s, 6.9 miles/h, 11.1 km/h
Wind direction:N, 000°
Visibilità totale:Maggiore di 10000 m, 10 km, 32800 ft, 6.2 miles
Clouds:Durchbrochene Bewölkung at 2000 ft, 610 m
Ein wenig bewölkt at 2300 ft, 701 m
Het Weer:moderato temporale
Temperature:22°C, 72°F
Sensazione termica:22°C, 71°F
Temperatura di rugiada :19°C, 66°F
Pressione atmosferica:1017 hPa, 762.8 mmHg, 30.03 inHg, 1.004 atm
Umidità relativa:83.1 %
METAR:FKKN 211400Z 00006KT 9999 TS BKN020 FEW023CB 22/19 Q1017

Snelkoppelingen

Actuele weersinformatie van de hele wereld. Voeg locaties toe met het plus (+) symbool. Deze snelkoppelingen kunnen worden toegevoegd aan Google.

Lid van de Technetium groep

website free tracking
StatCounter NetStat W3C Validator

20-07-2018 12:43:52
astro.technetium.be money.technetium.be phote.technetium.be tafeltennistafel.technetium.be www.ligfiets.net